sensor_id;sensor_type;location;lat;lon;timestamp;P1;durP1;ratioP1;P2;durP2;ratioP2
16954;SDS011;8594;52.052;8.354;2023-03-09T00:01:51;57.63;;;26.33;;
16954;SDS011;8594;52.052;8.354;2023-03-09T00:04:20;59.93;;;23.77;;
16954;SDS011;8594;52.052;8.354;2023-03-09T00:06:48;58.77;;;24.33;;
16954;SDS011;8594;52.052;8.354;2023-03-09T00:09:15;50.93;;;21.77;;
16954;SDS011;8594;52.052;8.354;2023-03-09T00:11:43;56.97;;;23.50;;
16954;SDS011;8594;52.052;8.354;2023-03-09T00:14:12;59.53;;;26.10;;
16954;SDS011;8594;52.052;8.354;2023-03-09T00:16:40;55.43;;;23.70;;
16954;SDS011;8594;52.052;8.354;2023-03-09T00:19:09;57.17;;;24.40;;
16954;SDS011;8594;52.052;8.354;2023-03-09T00:21:36;55.57;;;23.10;;
16954;SDS011;8594;52.052;8.354;2023-03-09T00:24:04;51.10;;;22.40;;
16954;SDS011;8594;52.052;8.354;2023-03-09T00:26:34;52.20;;;22.53;;
16954;SDS011;8594;52.052;8.354;2023-03-09T00:29:04;52.27;;;23.90;;
16954;SDS011;8594;52.052;8.354;2023-03-09T00:31:32;51.90;;;23.50;;
16954;SDS011;8594;52.052;8.354;2023-03-09T00:33:59;49.83;;;21.93;;
16954;SDS011;8594;52.052;8.354;2023-03-09T00:36:27;52.20;;;23.40;;
16954;SDS011;8594;52.052;8.354;2023-03-09T00:38:55;53.60;;;22.20;;
16954;SDS011;8594;52.052;8.354;2023-03-09T00:41:23;49.67;;;20.43;;
16954;SDS011;8594;52.052;8.354;2023-03-09T00:43:53;48.03;;;20.40;;
16954;SDS011;8594;52.052;8.354;2023-03-09T00:46:20;50.83;;;22.03;;
16954;SDS011;8594;52.052;8.354;2023-03-09T00:48:47;47.33;;;20.93;;
16954;SDS011;8594;52.052;8.354;2023-03-09T00:51:14;47.10;;;20.23;;
16954;SDS011;8594;52.052;8.354;2023-03-09T00:53:43;50.83;;;23.13;;
16954;SDS011;8594;52.052;8.354;2023-03-09T00:56:12;46.30;;;21.70;;
16954;SDS011;8594;52.052;8.354;2023-03-09T00:58:41;45.87;;;19.47;;
16954;SDS011;8594;52.052;8.354;2023-03-09T01:01:09;46.20;;;21.07;;
16954;SDS011;8594;52.052;8.354;2023-03-09T01:03:38;46.43;;;19.23;;
16954;SDS011;8594;52.052;8.354;2023-03-09T01:06:06;49.50;;;20.40;;
16954;SDS011;8594;52.052;8.354;2023-03-09T01:08:33;44.83;;;20.33;;
16954;SDS011;8594;52.052;8.354;2023-03-09T01:11:05;50.57;;;20.53;;
16954;SDS011;8594;52.052;8.354;2023-03-09T01:13:33;48.43;;;21.23;;
16954;SDS011;8594;52.052;8.354;2023-03-09T01:16:00;42.97;;;19.87;;
16954;SDS011;8594;52.052;8.354;2023-03-09T01:18:27;44.33;;;19.13;;
16954;SDS011;8594;52.052;8.354;2023-03-09T01:20:54;46.87;;;20.60;;
16954;SDS011;8594;52.052;8.354;2023-03-09T01:23:21;49.07;;;20.53;;
16954;SDS011;8594;52.052;8.354;2023-03-09T01:25:48;48.60;;;20.40;;
16954;SDS011;8594;52.052;8.354;2023-03-09T01:28:16;44.57;;;19.23;;
16954;SDS011;8594;52.052;8.354;2023-03-09T01:30:43;41.63;;;19.50;;
16954;SDS011;8594;52.052;8.354;2023-03-09T01:33:10;45.23;;;19.73;;
16954;SDS011;8594;52.052;8.354;2023-03-09T01:35:37;48.50;;;20.70;;
16954;SDS011;8594;52.052;8.354;2023-03-09T01:38:04;45.57;;;19.70;;
16954;SDS011;8594;52.052;8.354;2023-03-09T01:40:32;46.50;;;18.33;;
16954;SDS011;8594;52.052;8.354;2023-03-09T01:42:59;45.03;;;19.33;;
16954;SDS011;8594;52.052;8.354;2023-03-09T01:49:14;40.07;;;17.67;;
16954;SDS011;8594;52.052;8.354;2023-03-09T01:51:49;40.20;;;18.10;;
16954;SDS011;8594;52.052;8.354;2023-03-09T01:54:25;38.27;;;17.60;;
16954;SDS011;8594;52.052;8.354;2023-03-09T01:56:58;39.37;;;18.97;;
16954;SDS011;8594;52.052;8.354;2023-03-09T01:59:31;38.53;;;17.43;;
16954;SDS011;8594;52.052;8.354;2023-03-09T02:02:01;38.10;;;17.07;;
16954;SDS011;8594;52.052;8.354;2023-03-09T02:04:31;39.53;;;18.27;;
16954;SDS011;8594;52.052;8.354;2023-03-09T02:07:08;42.00;;;18.30;;
16954;SDS011;8594;52.052;8.354;2023-03-09T02:09:37;41.97;;;17.77;;
16954;SDS011;8594;52.052;8.354;2023-03-09T02:12:12;37.70;;;17.07;;
16954;SDS011;8594;52.052;8.354;2023-03-09T02:14:44;43.20;;;19.33;;
16954;SDS011;8594;52.052;8.354;2023-03-09T02:17:13;40.07;;;17.07;;
16954;SDS011;8594;52.052;8.354;2023-03-09T02:22:37;36.30;;;16.97;;
16954;SDS011;8594;52.052;8.354;2023-03-09T02:25:07;38.10;;;15.23;;
16954;SDS011;8594;52.052;8.354;2023-03-09T02:27:49;41.50;;;17.73;;
16954;SDS011;8594;52.052;8.354;2023-03-09T02:30:18;42.80;;;17.23;;
16954;SDS011;8594;52.052;8.354;2023-03-09T02:32:47;42.17;;;18.13;;
16954;SDS011;8594;52.052;8.354;2023-03-09T02:35:14;38.37;;;16.40;;
16954;SDS011;8594;52.052;8.354;2023-03-09T02:37:40;38.33;;;16.47;;
16954;SDS011;8594;52.052;8.354;2023-03-09T02:40:10;42.60;;;18.60;;
16954;SDS011;8594;52.052;8.354;2023-03-09T02:42:42;38.33;;;16.47;;
16954;SDS011;8594;52.052;8.354;2023-03-09T02:45:14;39.13;;;17.30;;
16954;SDS011;8594;52.052;8.354;2023-03-09T02:47:46;42.03;;;17.43;;
16954;SDS011;8594;52.052;8.354;2023-03-09T02:50:14;39.40;;;18.57;;
16954;SDS011;8594;52.052;8.354;2023-03-09T02:52:41;40.00;;;18.03;;
16954;SDS011;8594;52.052;8.354;2023-03-09T02:55:09;40.00;;;17.40;;
16954;SDS011;8594;52.052;8.354;2023-03-09T02:57:36;37.07;;;17.40;;
16954;SDS011;8594;52.052;8.354;2023-03-09T03:00:06;42.63;;;17.97;;
16954;SDS011;8594;52.052;8.354;2023-03-09T03:02:37;40.97;;;17.67;;
16954;SDS011;8594;52.052;8.354;2023-03-09T03:05:05;37.67;;;17.30;;
16954;SDS011;8594;52.052;8.354;2023-03-09T03:07:34;40.93;;;18.37;;
16954;SDS011;8594;52.052;8.354;2023-03-09T03:10:01;40.67;;;18.67;;
16954;SDS011;8594;52.052;8.354;2023-03-09T03:12:28;44.33;;;18.33;;
16954;SDS011;8594;52.052;8.354;2023-03-09T03:14:55;37.50;;;17.00;;
16954;SDS011;8594;52.052;8.354;2023-03-09T03:17:21;36.43;;;17.27;;
16954;SDS011;8594;52.052;8.354;2023-03-09T03:19:49;38.90;;;17.73;;
16954;SDS011;8594;52.052;8.354;2023-03-09T03:22:17;40.53;;;18.23;;
16954;SDS011;8594;52.052;8.354;2023-03-09T03:24:44;41.97;;;18.17;;
16954;SDS011;8594;52.052;8.354;2023-03-09T03:27:11;41.33;;;19.07;;
16954;SDS011;8594;52.052;8.354;2023-03-09T03:29:38;38.70;;;17.90;;
16954;SDS011;8594;52.052;8.354;2023-03-09T03:32:05;39.73;;;17.50;;
16954;SDS011;8594;52.052;8.354;2023-03-09T03:34:32;41.13;;;19.03;;
16954;SDS011;8594;52.052;8.354;2023-03-09T03:37:01;40.57;;;18.10;;
16954;SDS011;8594;52.052;8.354;2023-03-09T03:39:28;37.50;;;17.27;;
16954;SDS011;8594;52.052;8.354;2023-03-09T03:41:54;38.83;;;18.00;;
16954;SDS011;8594;52.052;8.354;2023-03-09T03:44:21;39.17;;;17.33;;
16954;SDS011;8594;52.052;8.354;2023-03-09T03:46:48;37.43;;;17.70;;
16954;SDS011;8594;52.052;8.354;2023-03-09T03:49:15;44.97;;;19.83;;
16954;SDS011;8594;52.052;8.354;2023-03-09T03:51:41;39.07;;;18.03;;
16954;SDS011;8594;52.052;8.354;2023-03-09T03:54:10;40.23;;;18.70;;
16954;SDS011;8594;52.052;8.354;2023-03-09T03:56:36;40.93;;;19.07;;
16954;SDS011;8594;52.052;8.354;2023-03-09T03:59:03;44.40;;;19.40;;
16954;SDS011;8594;52.052;8.354;2023-03-09T04:01:30;37.13;;;18.80;;
16954;SDS011;8594;52.052;8.354;2023-03-09T04:03:58;42.97;;;17.73;;
16954;SDS011;8594;52.052;8.354;2023-03-09T04:06:25;39.87;;;18.00;;
16954;SDS011;8594;52.052;8.354;2023-03-09T04:08:52;40.40;;;17.40;;
16954;SDS011;8594;52.052;8.354;2023-03-09T04:11:20;39.03;;;17.70;;
16954;SDS011;8594;52.052;8.354;2023-03-09T04:13:47;40.30;;;17.80;;
16954;SDS011;8594;52.052;8.354;2023-03-09T04:16:15;34.63;;;16.00;;
16954;SDS011;8594;52.052;8.354;2023-03-09T04:18:42;38.47;;;17.87;;
16954;SDS011;8594;52.052;8.354;2023-03-09T04:21:09;42.27;;;17.90;;
16954;SDS011;8594;52.052;8.354;2023-03-09T04:23:35;38.73;;;17.50;;
16954;SDS011;8594;52.052;8.354;2023-03-09T04:26:03;39.30;;;17.27;;
16954;SDS011;8594;52.052;8.354;2023-03-09T04:28:32;40.17;;;17.50;;
16954;SDS011;8594;52.052;8.354;2023-03-09T04:30:59;34.50;;;16.47;;
16954;SDS011;8594;52.052;8.354;2023-03-09T04:33:26;36.63;;;17.17;;
16954;SDS011;8594;52.052;8.354;2023-03-09T04:35:52;39.37;;;17.07;;
16954;SDS011;8594;52.052;8.354;2023-03-09T04:38:19;40.20;;;17.33;;
16954;SDS011;8594;52.052;8.354;2023-03-09T04:40:46;41.07;;;17.70;;
16954;SDS011;8594;52.052;8.354;2023-03-09T04:43:13;37.70;;;16.83;;
16954;SDS011;8594;52.052;8.354;2023-03-09T04:45:41;38.00;;;17.07;;
16954;SDS011;8594;52.052;8.354;2023-03-09T04:48:08;39.83;;;17.30;;
16954;SDS011;8594;52.052;8.354;2023-03-09T04:50:35;34.70;;;17.03;;
16954;SDS011;8594;52.052;8.354;2023-03-09T04:53:02;38.77;;;16.47;;
16954;SDS011;8594;52.052;8.354;2023-03-09T04:55:28;34.43;;;16.83;;
16954;SDS011;8594;52.052;8.354;2023-03-09T04:57:55;38.53;;;17.17;;
16954;SDS011;8594;52.052;8.354;2023-03-09T05:00:22;36.07;;;15.97;;
16954;SDS011;8594;52.052;8.354;2023-03-09T05:02:51;33.27;;;15.97;;
16954;SDS011;8594;52.052;8.354;2023-03-09T05:05:18;34.80;;;15.77;;
16954;SDS011;8594;52.052;8.354;2023-03-09T05:07:45;37.67;;;16.50;;
16954;SDS011;8594;52.052;8.354;2023-03-09T05:10:12;35.93;;;16.90;;
16954;SDS011;8594;52.052;8.354;2023-03-09T05:12:39;35.77;;;16.53;;
16954;SDS011;8594;52.052;8.354;2023-03-09T05:15:06;39.43;;;17.33;;
16954;SDS011;8594;52.052;8.354;2023-03-09T05:17:34;34.87;;;16.27;;
16954;SDS011;8594;52.052;8.354;2023-03-09T05:20:03;36.63;;;15.97;;
16954;SDS011;8594;52.052;8.354;2023-03-09T05:22:34;36.50;;;16.90;;
16954;SDS011;8594;52.052;8.354;2023-03-09T05:25:02;39.70;;;16.90;;
16954;SDS011;8594;52.052;8.354;2023-03-09T05:27:30;35.20;;;16.57;;
16954;SDS011;8594;52.052;8.354;2023-03-09T05:29:57;34.37;;;15.60;;
16954;SDS011;8594;52.052;8.354;2023-03-09T05:32:23;32.60;;;15.30;;
16954;SDS011;8594;52.052;8.354;2023-03-09T05:34:50;32.97;;;15.33;;
16954;SDS011;8594;52.052;8.354;2023-03-09T05:37:18;33.00;;;15.53;;
16954;SDS011;8594;52.052;8.354;2023-03-09T05:39:45;33.13;;;15.17;;
16954;SDS011;8594;52.052;8.354;2023-03-09T05:42:12;31.93;;;15.73;;
16954;SDS011;8594;52.052;8.354;2023-03-09T05:44:39;36.53;;;16.00;;
16954;SDS011;8594;52.052;8.354;2023-03-09T05:47:07;38.50;;;16.60;;
16954;SDS011;8594;52.052;8.354;2023-03-09T05:49:34;36.33;;;16.23;;
16954;SDS011;8594;52.052;8.354;2023-03-09T05:52:01;34.77;;;16.00;;
16954;SDS011;8594;52.052;8.354;2023-03-09T05:54:29;37.13;;;16.87;;
16954;SDS011;8594;52.052;8.354;2023-03-09T05:56:56;31.93;;;14.47;;
16954;SDS011;8594;52.052;8.354;2023-03-09T05:59:24;38.47;;;16.13;;
16954;SDS011;8594;52.052;8.354;2023-03-09T06:01:51;34.83;;;15.90;;
16954;SDS011;8594;52.052;8.354;2023-03-09T06:04:18;33.17;;;14.97;;
16954;SDS011;8594;52.052;8.354;2023-03-09T06:06:45;35.67;;;16.50;;
16954;SDS011;8594;52.052;8.354;2023-03-09T06:09:12;32.27;;;15.40;;
16954;SDS011;8594;52.052;8.354;2023-03-09T06:11:40;32.03;;;15.70;;
16954;SDS011;8594;52.052;8.354;2023-03-09T06:14:07;31.40;;;15.43;;
16954;SDS011;8594;52.052;8.354;2023-03-09T06:16:35;35.53;;;16.07;;
16954;SDS011;8594;52.052;8.354;2023-03-09T06:19:02;35.03;;;15.87;;
16954;SDS011;8594;52.052;8.354;2023-03-09T06:21:29;33.60;;;15.93;;
16954;SDS011;8594;52.052;8.354;2023-03-09T06:23:56;35.63;;;16.33;;
16954;SDS011;8594;52.052;8.354;2023-03-09T06:26:24;36.93;;;16.77;;
16954;SDS011;8594;52.052;8.354;2023-03-09T06:28:52;36.37;;;15.73;;
16954;SDS011;8594;52.052;8.354;2023-03-09T06:31:19;34.17;;;15.63;;
16954;SDS011;8594;52.052;8.354;2023-03-09T06:33:46;34.73;;;16.20;;
16954;SDS011;8594;52.052;8.354;2023-03-09T06:36:15;35.07;;;15.50;;
16954;SDS011;8594;52.052;8.354;2023-03-09T06:38:43;32.10;;;15.43;;
16954;SDS011;8594;52.052;8.354;2023-03-09T06:41:10;36.57;;;15.80;;
16954;SDS011;8594;52.052;8.354;2023-03-09T06:43:39;32.00;;;15.37;;
16954;SDS011;8594;52.052;8.354;2023-03-09T06:46:08;31.47;;;14.83;;
16954;SDS011;8594;52.052;8.354;2023-03-09T06:48:35;34.87;;;16.20;;
16954;SDS011;8594;52.052;8.354;2023-03-09T06:51:02;34.87;;;15.97;;
16954;SDS011;8594;52.052;8.354;2023-03-09T06:53:29;38.03;;;16.47;;
16954;SDS011;8594;52.052;8.354;2023-03-09T06:55:58;37.70;;;16.53;;
16954;SDS011;8594;52.052;8.354;2023-03-09T06:58:25;33.73;;;16.50;;
16954;SDS011;8594;52.052;8.354;2023-03-09T07:00:52;36.13;;;16.67;;
16954;SDS011;8594;52.052;8.354;2023-03-09T07:03:21;36.30;;;16.17;;
16954;SDS011;8594;52.052;8.354;2023-03-09T07:05:48;33.67;;;15.67;;
16954;SDS011;8594;52.052;8.354;2023-03-09T07:08:15;33.47;;;15.57;;
16954;SDS011;8594;52.052;8.354;2023-03-09T07:10:42;33.27;;;16.27;;
16954;SDS011;8594;52.052;8.354;2023-03-09T07:13:11;36.47;;;16.93;;
16954;SDS011;8594;52.052;8.354;2023-03-09T07:15:39;34.57;;;15.90;;
16954;SDS011;8594;52.052;8.354;2023-03-09T07:18:06;34.93;;;16.03;;
16954;SDS011;8594;52.052;8.354;2023-03-09T07:20:36;32.67;;;16.13;;
16954;SDS011;8594;52.052;8.354;2023-03-09T07:23:03;34.10;;;15.73;;
16954;SDS011;8594;52.052;8.354;2023-03-09T07:25:31;33.87;;;15.83;;
16954;SDS011;8594;52.052;8.354;2023-03-09T07:27:59;34.53;;;16.97;;
16954;SDS011;8594;52.052;8.354;2023-03-09T07:30:29;38.90;;;18.47;;
16954;SDS011;8594;52.052;8.354;2023-03-09T07:32:56;39.00;;;17.17;;
16954;SDS011;8594;52.052;8.354;2023-03-09T07:35:24;41.77;;;16.87;;
16954;SDS011;8594;52.052;8.354;2023-03-09T07:37:53;40.00;;;17.50;;
16954;SDS011;8594;52.052;8.354;2023-03-09T07:40:20;34.53;;;16.77;;
16954;SDS011;8594;52.052;8.354;2023-03-09T07:42:48;40.50;;;18.37;;
16954;SDS011;8594;52.052;8.354;2023-03-09T07:45:18;35.30;;;15.87;;
16954;SDS011;8594;52.052;8.354;2023-03-09T07:47:47;37.93;;;17.57;;
16954;SDS011;8594;52.052;8.354;2023-03-09T07:50:14;36.70;;;16.63;;
16954;SDS011;8594;52.052;8.354;2023-03-09T07:52:41;32.73;;;16.43;;
16954;SDS011;8594;52.052;8.354;2023-03-09T07:55:11;36.73;;;16.90;;
16954;SDS011;8594;52.052;8.354;2023-03-09T07:57:40;40.27;;;16.73;;
16954;SDS011;8594;52.052;8.354;2023-03-09T08:00:10;35.27;;;16.73;;
16954;SDS011;8594;52.052;8.354;2023-03-09T08:02:45;36.37;;;16.83;;
16954;SDS011;8594;52.052;8.354;2023-03-09T08:05:12;37.90;;;16.50;;
16954;SDS011;8594;52.052;8.354;2023-03-09T08:07:40;36.60;;;17.13;;
16954;SDS011;8594;52.052;8.354;2023-03-09T08:10:08;34.53;;;16.93;;
16954;SDS011;8594;52.052;8.354;2023-03-09T08:12:38;33.40;;;15.83;;
16954;SDS011;8594;52.052;8.354;2023-03-09T08:15:06;35.33;;;16.53;;
16954;SDS011;8594;52.052;8.354;2023-03-09T08:17:34;35.43;;;17.60;;
16954;SDS011;8594;52.052;8.354;2023-03-09T08:20:01;41.17;;;18.63;;
16954;SDS011;8594;52.052;8.354;2023-03-09T08:22:33;38.07;;;17.13;;
16954;SDS011;8594;52.052;8.354;2023-03-09T08:25:00;40.20;;;18.27;;
16954;SDS011;8594;52.052;8.354;2023-03-09T08:27:29;38.70;;;17.27;;
16954;SDS011;8594;52.052;8.354;2023-03-09T08:30:02;40.67;;;19.30;;
16954;SDS011;8594;52.052;8.354;2023-03-09T08:32:30;40.03;;;18.10;;
16954;SDS011;8594;52.052;8.354;2023-03-09T08:34:57;41.93;;;18.97;;
16954;SDS011;8594;52.052;8.354;2023-03-09T08:37:23;38.97;;;19.13;;
16954;SDS011;8594;52.052;8.354;2023-03-09T08:39:50;41.10;;;18.53;;
16954;SDS011;8594;52.052;8.354;2023-03-09T08:42:17;43.73;;;19.63;;
16954;SDS011;8594;52.052;8.354;2023-03-09T08:44:45;39.20;;;18.53;;
16954;SDS011;8594;52.052;8.354;2023-03-09T08:47:12;40.33;;;18.87;;
16954;SDS011;8594;52.052;8.354;2023-03-09T08:49:39;41.10;;;18.37;;
16954;SDS011;8594;52.052;8.354;2023-03-09T08:52:08;38.30;;;17.77;;
16954;SDS011;8594;52.052;8.354;2023-03-09T08:54:35;37.90;;;18.83;;
16954;SDS011;8594;52.052;8.354;2023-03-09T08:57:02;39.10;;;17.57;;
16954;SDS011;8594;52.052;8.354;2023-03-09T08:59:29;38.47;;;17.73;;
16954;SDS011;8594;52.052;8.354;2023-03-09T09:01:58;39.07;;;18.57;;
16954;SDS011;8594;52.052;8.354;2023-03-09T09:04:24;37.30;;;17.27;;
16954;SDS011;8594;52.052;8.354;2023-03-09T09:06:51;46.07;;;19.73;;
16954;SDS011;8594;52.052;8.354;2023-03-09T09:09:19;42.50;;;18.90;;
16954;SDS011;8594;52.052;8.354;2023-03-09T09:11:46;43.47;;;21.13;;
16954;SDS011;8594;52.052;8.354;2023-03-09T09:14:14;42.77;;;18.47;;
16954;SDS011;8594;52.052;8.354;2023-03-09T09:16:42;45.50;;;19.63;;
16954;SDS011;8594;52.052;8.354;2023-03-09T09:19:10;45.30;;;19.13;;
16954;SDS011;8594;52.052;8.354;2023-03-09T09:21:37;43.73;;;19.37;;
16954;SDS011;8594;52.052;8.354;2023-03-09T09:24:04;46.43;;;19.20;;
16954;SDS011;8594;52.052;8.354;2023-03-09T09:26:31;43.60;;;18.63;;
16954;SDS011;8594;52.052;8.354;2023-03-09T09:28:59;42.63;;;17.97;;
16954;SDS011;8594;52.052;8.354;2023-03-09T09:31:26;41.80;;;17.43;;
16954;SDS011;8594;52.052;8.354;2023-03-09T09:33:54;38.27;;;16.37;;
16954;SDS011;8594;52.052;8.354;2023-03-09T09:36:24;43.47;;;17.67;;
16954;SDS011;8594;52.052;8.354;2023-03-09T09:38:51;43.40;;;17.97;;
16954;SDS011;8594;52.052;8.354;2023-03-09T09:41:21;37.17;;;17.60;;
16954;SDS011;8594;52.052;8.354;2023-03-09T09:43:53;37.93;;;16.70;;
16954;SDS011;8594;52.052;8.354;2023-03-09T09:46:24;38.37;;;17.17;;
16954;SDS011;8594;52.052;8.354;2023-03-09T09:48:55;37.37;;;16.73;;
16954;SDS011;8594;52.052;8.354;2023-03-09T09:51:36;37.90;;;17.27;;
16954;SDS011;8594;52.052;8.354;2023-03-09T09:54:21;42.70;;;17.80;;
16954;SDS011;8594;52.052;8.354;2023-03-09T09:57:00;38.53;;;16.97;;
16954;SDS011;8594;52.052;8.354;2023-03-09T09:59:33;44.90;;;17.83;;
16954;SDS011;8594;52.052;8.354;2023-03-09T10:02:18;41.00;;;17.93;;
16954;SDS011;8594;52.052;8.354;2023-03-09T10:05:03;36.03;;;15.63;;
16954;SDS011;8594;52.052;8.354;2023-03-09T10:07:42;40.50;;;16.97;;
16954;SDS011;8594;52.052;8.354;2023-03-09T10:10:11;34.33;;;15.73;;
16954;SDS011;8594;52.052;8.354;2023-03-09T10:12:45;36.17;;;17.23;;
16954;SDS011;8594;52.052;8.354;2023-03-09T10:15:14;38.80;;;16.97;;
16954;SDS011;8594;52.052;8.354;2023-03-09T10:17:51;41.37;;;17.73;;
16954;SDS011;8594;52.052;8.354;2023-03-09T10:20:25;35.33;;;16.93;;
16954;SDS011;8594;52.052;8.354;2023-03-09T10:22:59;35.80;;;16.57;;
16954;SDS011;8594;52.052;8.354;2023-03-09T10:25:42;40.43;;;15.97;;
16954;SDS011;8594;52.052;8.354;2023-03-09T10:28:10;34.23;;;15.90;;
16954;SDS011;8594;52.052;8.354;2023-03-09T10:30:45;37.93;;;16.70;;
16954;SDS011;8594;52.052;8.354;2023-03-09T10:33:22;33.77;;;16.10;;
16954;SDS011;8594;52.052;8.354;2023-03-09T10:36:05;41.63;;;18.77;;
16954;SDS011;8594;52.052;8.354;2023-03-09T10:38:37;36.47;;;16.97;;
16954;SDS011;8594;52.052;8.354;2023-03-09T10:41:10;39.23;;;17.13;;
16954;SDS011;8594;52.052;8.354;2023-03-09T10:43:42;36.43;;;17.10;;
16954;SDS011;8594;52.052;8.354;2023-03-09T10:46:12;35.70;;;16.20;;
16954;SDS011;8594;52.052;8.354;2023-03-09T10:48:41;38.17;;;16.93;;
16954;SDS011;8594;52.052;8.354;2023-03-09T10:51:20;38.77;;;16.10;;
16954;SDS011;8594;52.052;8.354;2023-03-09T10:53:53;36.23;;;16.63;;
16954;SDS011;8594;52.052;8.354;2023-03-09T10:56:21;34.53;;;16.20;;
16954;SDS011;8594;52.052;8.354;2023-03-09T11:01:40;36.83;;;15.97;;
16954;SDS011;8594;52.052;8.354;2023-03-09T11:04:26;33.83;;;14.90;;
16954;SDS011;8594;52.052;8.354;2023-03-09T11:07:04;35.50;;;14.90;;
16954;SDS011;8594;52.052;8.354;2023-03-09T11:09:48;37.27;;;16.60;;
16954;SDS011;8594;52.052;8.354;2023-03-09T11:12:18;35.90;;;16.33;;
16954;SDS011;8594;52.052;8.354;2023-03-09T11:14:53;36.77;;;16.17;;
16954;SDS011;8594;52.052;8.354;2023-03-09T11:20:18;35.30;;;16.73;;
16954;SDS011;8594;52.052;8.354;2023-03-09T11:26:03;36.87;;;16.87;;
16954;SDS011;8594;52.052;8.354;2023-03-09T11:31:34;41.17;;;16.90;;
16954;SDS011;8594;52.052;8.354;2023-03-09T11:34:05;36.53;;;16.37;;
16954;SDS011;8594;52.052;8.354;2023-03-09T11:36:40;38.90;;;16.63;;
16954;SDS011;8594;52.052;8.354;2023-03-09T11:39:13;38.50;;;17.33;;
16954;SDS011;8594;52.052;8.354;2023-03-09T11:41:47;37.17;;;16.93;;
16954;SDS011;8594;52.052;8.354;2023-03-09T11:44:19;38.77;;;16.43;;
16954;SDS011;8594;52.052;8.354;2023-03-09T11:46:52;34.13;;;15.37;;
16954;SDS011;8594;52.052;8.354;2023-03-09T11:49:25;31.63;;;14.53;;
16954;SDS011;8594;52.052;8.354;2023-03-09T11:51:55;38.90;;;16.40;;
16954;SDS011;8594;52.052;8.354;2023-03-09T11:54:26;33.00;;;16.03;;
16954;SDS011;8594;52.052;8.354;2023-03-09T11:57:03;38.80;;;16.07;;
16954;SDS011;8594;52.052;8.354;2023-03-09T11:59:35;32.57;;;15.17;;
16954;SDS011;8594;52.052;8.354;2023-03-09T12:02:11;37.93;;;16.70;;
16954;SDS011;8594;52.052;8.354;2023-03-09T12:04:46;32.90;;;15.67;;
16954;SDS011;8594;52.052;8.354;2023-03-09T12:07:17;35.43;;;15.47;;
16954;SDS011;8594;52.052;8.354;2023-03-09T12:09:51;32.97;;;16.17;;
16954;SDS011;8594;52.052;8.354;2023-03-09T12:12:30;30.80;;;14.73;;
16954;SDS011;8594;52.052;8.354;2023-03-09T12:15:03;34.90;;;15.57;;
16954;SDS011;8594;52.052;8.354;2023-03-09T12:17:40;35.43;;;15.30;;
16954;SDS011;8594;52.052;8.354;2023-03-09T12:20:18;38.17;;;15.70;;
16954;SDS011;8594;52.052;8.354;2023-03-09T12:22:51;37.60;;;16.57;;
16954;SDS011;8594;52.052;8.354;2023-03-09T12:25:18;32.93;;;15.07;;
16954;SDS011;8594;52.052;8.354;2023-03-09T12:27:50;31.40;;;14.77;;
16954;SDS011;8594;52.052;8.354;2023-03-09T12:30:22;29.90;;;14.83;;
16954;SDS011;8594;52.052;8.354;2023-03-09T12:32:55;31.57;;;14.97;;
16954;SDS011;8594;52.052;8.354;2023-03-09T12:38:24;32.40;;;15.87;;
16954;SDS011;8594;52.052;8.354;2023-03-09T12:40:52;32.80;;;15.10;;
16954;SDS011;8594;52.052;8.354;2023-03-09T12:49:26;32.47;;;14.50;;
16954;SDS011;8594;52.052;8.354;2023-03-09T12:55:21;31.97;;;15.33;;
16954;SDS011;8594;52.052;8.354;2023-03-09T12:58:06;31.77;;;14.80;;
16954;SDS011;8594;52.052;8.354;2023-03-09T13:01:03;36.27;;;16.47;;
16954;SDS011;8594;52.052;8.354;2023-03-09T13:03:34;35.07;;;15.33;;
16954;SDS011;8594;52.052;8.354;2023-03-09T13:09:00;34.13;;;15.87;;
16954;SDS011;8594;52.052;8.354;2023-03-09T13:11:35;31.90;;;15.53;;
16954;SDS011;8594;52.052;8.354;2023-03-09T13:14:11;39.03;;;17.30;;
16954;SDS011;8594;52.052;8.354;2023-03-09T13:19:53;35.40;;;14.87;;
16954;SDS011;8594;52.052;8.354;2023-03-09T13:22:25;39.97;;;17.07;;
16954;SDS011;8594;52.052;8.354;2023-03-09T13:25:12;38.00;;;15.83;;
16954;SDS011;8594;52.052;8.354;2023-03-09T13:28:14;31.43;;;15.60;;
16954;SDS011;8594;52.052;8.354;2023-03-09T13:30:51;35.13;;;15.40;;
16954;SDS011;8594;52.052;8.354;2023-03-09T13:33:24;39.00;;;16.37;;
16954;SDS011;8594;52.052;8.354;2023-03-09T13:35:57;31.93;;;15.23;;
16954;SDS011;8594;52.052;8.354;2023-03-09T13:38:35;33.90;;;15.07;;
16954;SDS011;8594;52.052;8.354;2023-03-09T13:41:05;33.37;;;16.17;;
16954;SDS011;8594;52.052;8.354;2023-03-09T13:43:44;34.47;;;15.30;;
16954;SDS011;8594;52.052;8.354;2023-03-09T13:46:19;34.93;;;15.77;;
16954;SDS011;8594;52.052;8.354;2023-03-09T13:48:51;35.30;;;16.30;;
16954;SDS011;8594;52.052;8.354;2023-03-09T13:51:32;36.20;;;15.13;;
16954;SDS011;8594;52.052;8.354;2023-03-09T13:57:03;32.47;;;14.57;;
16954;SDS011;8594;52.052;8.354;2023-03-09T13:59:46;30.23;;;14.30;;
16954;SDS011;8594;52.052;8.354;2023-03-09T14:02:24;29.27;;;13.87;;
16954;SDS011;8594;52.052;8.354;2023-03-09T14:05:04;31.13;;;15.63;;
16954;SDS011;8594;52.052;8.354;2023-03-09T14:07:43;31.90;;;14.50;;
16954;SDS011;8594;52.052;8.354;2023-03-09T14:10:17;30.60;;;15.03;;
16954;SDS011;8594;52.052;8.354;2023-03-09T14:12:50;37.73;;;16.63;;
16954;SDS011;8594;52.052;8.354;2023-03-09T14:15:20;35.33;;;16.23;;
16954;SDS011;8594;52.052;8.354;2023-03-09T14:17:49;34.17;;;16.80;;
16954;SDS011;8594;52.052;8.354;2023-03-09T14:20:18;36.53;;;17.20;;
16954;SDS011;8594;52.052;8.354;2023-03-09T14:22:48;38.77;;;16.40;;
16954;SDS011;8594;52.052;8.354;2023-03-09T14:25:31;37.20;;;16.37;;
16954;SDS011;8594;52.052;8.354;2023-03-09T14:27:58;36.37;;;15.43;;
16954;SDS011;8594;52.052;8.354;2023-03-09T14:30:34;35.93;;;16.17;;
16954;SDS011;8594;52.052;8.354;2023-03-09T14:33:22;41.90;;;17.80;;
16954;SDS011;8594;52.052;8.354;2023-03-09T14:36:06;40.27;;;16.77;;
16954;SDS011;8594;52.052;8.354;2023-03-09T14:38:50;39.40;;;17.50;;
16954;SDS011;8594;52.052;8.354;2023-03-09T14:41:21;42.70;;;17.90;;
16954;SDS011;8594;52.052;8.354;2023-03-09T14:43:50;36.00;;;16.37;;
16954;SDS011;8594;52.052;8.354;2023-03-09T14:46:17;40.17;;;17.70;;
16954;SDS011;8594;52.052;8.354;2023-03-09T14:48:48;43.83;;;18.17;;
16954;SDS011;8594;52.052;8.354;2023-03-09T14:51:18;42.23;;;17.57;;
16954;SDS011;8594;52.052;8.354;2023-03-09T14:53:52;39.40;;;17.33;;
16954;SDS011;8594;52.052;8.354;2023-03-09T14:56:23;41.83;;;18.10;;
16954;SDS011;8594;52.052;8.354;2023-03-09T14:58:52;44.53;;;18.17;;
16954;SDS011;8594;52.052;8.354;2023-03-09T15:01:19;42.30;;;18.33;;
16954;SDS011;8594;52.052;8.354;2023-03-09T15:03:49;44.60;;;18.23;;
16954;SDS011;8594;52.052;8.354;2023-03-09T15:06:16;41.37;;;18.87;;
16954;SDS011;8594;52.052;8.354;2023-03-09T15:08:43;43.10;;;17.73;;
16954;SDS011;8594;52.052;8.354;2023-03-09T15:11:10;43.70;;;18.37;;
16954;SDS011;8594;52.052;8.354;2023-03-09T15:13:37;41.10;;;18.23;;
16954;SDS011;8594;52.052;8.354;2023-03-09T15:16:05;33.50;;;14.87;;
16954;SDS011;8594;52.052;8.354;2023-03-09T15:18:32;42.07;;;17.43;;
16954;SDS011;8594;52.052;8.354;2023-03-09T15:21:00;34.80;;;15.93;;
16954;SDS011;8594;52.052;8.354;2023-03-09T15:23:27;36.63;;;16.37;;
16954;SDS011;8594;52.052;8.354;2023-03-09T15:25:54;29.37;;;13.87;;
16954;SDS011;8594;52.052;8.354;2023-03-09T15:28:21;32.97;;;13.47;;
16954;SDS011;8594;52.052;8.354;2023-03-09T15:30:48;32.80;;;14.00;;